sensor_id;sensor_type;location;lat;lon;timestamp;pressure;altitude;pressure_sealevel;temperature;humidity
20630;BME280;17386;43.846;25.950;2022-11-11T00:00:34;102428.09;;;10.06;100.00
20630;BME280;17386;43.846;25.950;2022-11-11T00:03:00;102427.22;;;10.04;100.00
20630;BME280;17386;43.846;25.950;2022-11-11T00:05:26;102428.09;;;10.01;100.00
20630;BME280;17386;43.846;25.950;2022-11-11T00:07:52;102417.50;;;10.01;100.00
20630;BME280;17386;43.846;25.950;2022-11-11T00:10:18;102407.75;;;10.05;100.00
20630;BME280;17386;43.846;25.950;2022-11-11T00:12:44;102423.63;;;10.11;100.00
20630;BME280;17386;43.846;25.950;2022-11-11T00:15:10;102413.03;;;10.09;100.00
20630;BME280;17386;43.846;25.950;2022-11-11T00:17:35;102412.13;;;10.07;100.00
20630;BME280;17386;43.846;25.950;2022-11-11T00:20:19;102408.59;;;10.11;100.00
20630;BME280;17386;43.846;25.950;2022-11-11T00:23:03;102409.47;;;10.12;100.00
20630;BME280;17386;43.846;25.950;2022-11-11T00:25:51;102408.59;;;10.10;100.00
20630;BME280;17386;43.846;25.950;2022-11-11T00:28:17;102410.38;;;10.08;100.00
20630;BME280;17386;43.846;25.950;2022-11-11T00:30:43;102406.81;;;10.10;100.00
20630;BME280;17386;43.846;25.950;2022-11-11T00:33:08;102405.97;;;10.05;100.00
20630;BME280;17386;43.846;25.950;2022-11-11T00:35:33;102411.31;;;10.02;100.00
20630;BME280;17386;43.846;25.950;2022-11-11T00:38:17;102413.94;;;10.04;100.00
20630;BME280;17386;43.846;25.950;2022-11-11T00:41:01;102406.81;;;10.07;100.00
20630;BME280;17386;43.846;25.950;2022-11-11T00:43:26;102398.91;;;10.04;100.00
20630;BME280;17386;43.846;25.950;2022-11-11T00:45:52;102404.19;;;10.06;100.00
20630;BME280;17386;43.846;25.950;2022-11-11T00:48:17;102403.28;;;10.11;100.00
20630;BME280;17386;43.846;25.950;2022-11-11T00:51:01;102399.69;;;10.19;100.00
20630;BME280;17386;43.846;25.950;2022-11-11T00:53:29;102402.34;;;10.17;100.00
20630;BME280;17386;43.846;25.950;2022-11-11T00:55:57;102398.81;;;10.15;100.00
20630;BME280;17386;43.846;25.950;2022-11-11T00:58:22;102392.56;;;10.21;100.00
20630;BME280;17386;43.846;25.950;2022-11-11T01:00:48;102400.56;;;10.24;100.00
20630;BME280;17386;43.846;25.950;2022-11-11T01:03:20;102397.91;;;10.19;100.00
20630;BME280;17386;43.846;25.950;2022-11-11T01:05:46;102401.44;;;10.20;100.00
20630;BME280;17386;43.846;25.950;2022-11-11T01:08:12;102397.00;;;10.25;100.00
20630;BME280;17386;43.846;25.950;2022-11-11T01:10:38;102393.50;;;10.23;100.00
20630;BME280;17386;43.846;25.950;2022-11-11T01:13:05;102398.78;;;10.24;100.00
20630;BME280;17386;43.846;25.950;2022-11-11T01:15:37;102390.84;;;10.23;100.00
20630;BME280;17386;43.846;25.950;2022-11-11T01:18:03;102389.06;;;10.23;100.00
20630;BME280;17386;43.846;25.950;2022-11-11T01:20:29;102380.16;;;10.27;100.00
20630;BME280;17386;43.846;25.950;2022-11-11T01:22:54;102378.38;;;10.28;100.00
20630;BME280;17386;43.846;25.950;2022-11-11T01:25:20;102373.94;;;10.30;100.00
20630;BME280;17386;43.846;25.950;2022-11-11T01:27:46;102375.69;;;10.29;100.00
20630;BME280;17386;43.846;25.950;2022-11-11T01:30:11;102381.03;;;10.31;100.00
20630;BME280;17386;43.846;25.950;2022-11-11T01:32:38;102384.56;;;10.30;100.00
20630;BME280;17386;43.846;25.950;2022-11-11T01:35:05;102382.91;;;10.12;100.00
20630;BME280;17386;43.846;25.950;2022-11-11T01:37:34;102379.28;;;10.21;100.00
20630;BME280;17386;43.846;25.950;2022-11-11T01:40:00;102383.72;;;10.26;100.00
20630;BME280;17386;43.846;25.950;2022-11-11T01:42:25;102388.09;;;10.29;100.00
20630;BME280;17386;43.846;25.950;2022-11-11T01:44:51;102382.81;;;10.30;100.00
20630;BME280;17386;43.846;25.950;2022-11-11T01:47:17;102381.06;;;10.26;100.00
20630;BME280;17386;43.846;25.950;2022-11-11T01:49:56;102386.47;;;10.06;100.00
20630;BME280;17386;43.846;25.950;2022-11-11T01:52:33;102385.53;;;10.13;100.00
20630;BME280;17386;43.846;25.950;2022-11-11T01:55:14;102380.22;;;10.18;100.00
20630;BME280;17386;43.846;25.950;2022-11-11T02:00:16;102387.34;;;10.11;100.00
20630;BME280;17386;43.846;25.950;2022-11-11T02:02:49;102383.78;;;10.12;100.00
20630;BME280;17386;43.846;25.950;2022-11-11T02:05:17;102383.88;;;9.99;100.00
20630;BME280;17386;43.846;25.950;2022-11-11T02:08:06;102386.53;;;10.03;100.00
20630;BME280;17386;43.846;25.950;2022-11-11T02:10:33;102393.59;;;10.01;100.00
20630;BME280;17386;43.846;25.950;2022-11-11T02:12:59;102388.28;;;10.04;100.00
20630;BME280;17386;43.846;25.950;2022-11-11T02:16:00;102391.78;;;10.09;100.00
20630;BME280;17386;43.846;25.950;2022-11-11T02:18:26;102392.72;;;10.04;100.00
20630;BME280;17386;43.846;25.950;2022-11-11T02:20:52;102392.66;;;10.11;100.00
20630;BME280;17386;43.846;25.950;2022-11-11T02:25:58;102392.63;;;10.16;100.00
20630;BME280;17386;43.846;25.950;2022-11-11T02:28:26;102383.75;;;10.14;100.00
20630;BME280;17386;43.846;25.950;2022-11-11T02:30:52;102388.28;;;10.03;100.00
20630;BME280;17386;43.846;25.950;2022-11-11T02:33:17;102397.16;;;9.99;100.00
20630;BME280;17386;43.846;25.950;2022-11-11T02:35:45;102397.19;;;9.96;100.00
20630;BME280;17386;43.846;25.950;2022-11-11T02:38:20;102394.53;;;9.97;100.00
20630;BME280;17386;43.846;25.950;2022-11-11T02:40:45;102406.06;;;9.90;100.00
20630;BME280;17386;43.846;25.950;2022-11-11T02:43:45;102407.00;;;9.83;100.00
20630;BME280;17386;43.846;25.950;2022-11-11T02:46:11;102405.22;;;9.85;100.00
20630;BME280;17386;43.846;25.950;2022-11-11T02:48:36;102413.22;;;9.79;100.00
20630;BME280;17386;43.846;25.950;2022-11-11T02:51:02;102405.22;;;9.80;100.00
20630;BME280;17386;43.846;25.950;2022-11-11T02:53:27;102411.41;;;9.89;100.00
20630;BME280;17386;43.846;25.950;2022-11-11T02:55:52;102407.81;;;9.93;100.00
20630;BME280;17386;43.846;25.950;2022-11-11T02:58:18;102408.72;;;9.90;100.00
20630;BME280;17386;43.846;25.950;2022-11-11T03:00:43;102412.22;;;9.94;100.00
20630;BME280;17386;43.846;25.950;2022-11-11T03:03:10;102407.81;;;9.96;100.00
20630;BME280;17386;43.846;25.950;2022-11-11T03:05:36;102401.59;;;9.98;100.00
20630;BME280;17386;43.846;25.950;2022-11-11T03:08:01;102405.16;;;9.96;100.00
20630;BME280;17386;43.846;25.950;2022-11-11T03:10:26;102407.00;;;9.84;100.00
20630;BME280;17386;43.846;25.950;2022-11-11T03:12:52;102405.22;;;9.80;100.00
20630;BME280;17386;43.846;25.950;2022-11-11T03:15:17;102406.06;;;9.87;100.00
20630;BME280;17386;43.846;25.950;2022-11-11T03:17:43;102399.00;;;9.86;100.00
20630;BME280;17386;43.846;25.950;2022-11-11T03:20:10;102417.56;;;9.92;100.00
20630;BME280;17386;43.846;25.950;2022-11-11T03:23:12;102407.06;;;9.71;100.00
20630;BME280;17386;43.846;25.950;2022-11-11T03:25:40;102404.44;;;9.69;100.00
20630;BME280;17386;43.846;25.950;2022-11-11T03:30:35;102407.03;;;9.74;100.00
20630;BME280;17386;43.846;25.950;2022-11-11T03:33:02;102410.56;;;9.79;100.00
20630;BME280;17386;43.846;25.950;2022-11-11T03:35:29;102410.56;;;9.82;100.00
20630;BME280;17386;43.846;25.950;2022-11-11T03:37:54;102406.97;;;9.87;100.00
20630;BME280;17386;43.846;25.950;2022-11-11T03:40:38;102406.94;;;9.92;100.00
20630;BME280;17386;43.846;25.950;2022-11-11T03:43:04;102406.06;;;9.92;100.00
20630;BME280;17386;43.846;25.950;2022-11-11T03:45:29;102404.31;;;9.89;100.00
20630;BME280;17386;43.846;25.950;2022-11-11T03:47:55;102410.50;;;9.91;100.00
20630;BME280;17386;43.846;25.950;2022-11-11T03:50:21;102422.81;;;10.00;100.00
20630;BME280;17386;43.846;25.950;2022-11-11T03:52:47;102421.91;;;10.04;100.00
20630;BME280;17386;43.846;25.950;2022-11-11T03:55:13;102421.81;;;10.14;100.00
20630;BME280;17386;43.846;25.950;2022-11-11T03:57:42;102421.75;;;10.28;100.00
20630;BME280;17386;43.846;25.950;2022-11-11T04:00:10;102424.34;;;10.39;100.00
20630;BME280;17386;43.846;25.950;2022-11-11T04:02:36;102419.84;;;10.50;100.00
20630;BME280;17386;43.846;25.950;2022-11-11T04:05:19;102417.13;;;10.53;100.00
20630;BME280;17386;43.846;25.950;2022-11-11T04:08:03;102417.09;;;10.59;100.00
20630;BME280;17386;43.846;25.950;2022-11-11T04:10:47;102418.78;;;10.63;100.00
20630;BME280;17386;43.846;25.950;2022-11-11T04:13:13;102405.47;;;10.71;100.00
20630;BME280;17386;43.846;25.950;2022-11-11T04:15:56;102418.66;;;10.80;100.00
20630;BME280;17386;43.846;25.950;2022-11-11T04:18:32;102410.69;;;10.80;100.00
20630;BME280;17386;43.846;25.950;2022-11-11T04:21:16;102427.56;;;10.78;100.00
20630;BME280;17386;43.846;25.950;2022-11-11T04:24:00;102436.41;;;10.75;100.00
20630;BME280;17386;43.846;25.950;2022-11-11T04:26:25;102445.25;;;10.79;100.00
20630;BME280;17386;43.846;25.950;2022-11-11T04:28:51;102452.28;;;10.86;100.00
20630;BME280;17386;43.846;25.950;2022-11-11T04:31:35;102465.56;;;10.87;100.00
20630;BME280;17386;43.846;25.950;2022-11-11T04:34:00;102474.59;;;10.66;100.00
20630;BME280;17386;43.846;25.950;2022-11-11T04:36:25;102483.47;;;10.65;100.00
20630;BME280;17386;43.846;25.950;2022-11-11T04:38:51;102477.16;;;10.77;100.00
20630;BME280;17386;43.846;25.950;2022-11-11T04:41:35;102488.69;;;10.79;100.00
20630;BME280;17386;43.846;25.950;2022-11-11T04:44:00;102484.25;;;10.80;100.00
20630;BME280;17386;43.846;25.950;2022-11-11T04:46:44;102506.41;;;10.77;100.00
20630;BME280;17386;43.846;25.950;2022-11-11T04:49:09;102516.19;;;10.74;100.00
20630;BME280;17386;43.846;25.950;2022-11-11T04:51:35;102525.13;;;10.66;100.00
20630;BME280;17386;43.846;25.950;2022-11-11T04:54:19;102522.47;;;10.62;100.00
20630;BME280;17386;43.846;25.950;2022-11-11T04:56:44;102534.03;;;10.59;100.00
20630;BME280;17386;43.846;25.950;2022-11-11T04:59:17;102532.38;;;10.43;100.00
20630;BME280;17386;43.846;25.950;2022-11-11T05:01:42;102534.97;;;10.48;100.00
20630;BME280;17386;43.846;25.950;2022-11-11T05:04:26;102534.19;;;10.38;100.00
20630;BME280;17386;43.846;25.950;2022-11-11T05:06:51;102535.91;;;10.40;100.00
20630;BME280;17386;43.846;25.950;2022-11-11T05:09:35;102540.34;;;10.45;100.00
20630;BME280;17386;43.846;25.950;2022-11-11T05:12:01;102544.75;;;10.43;100.00
20630;BME280;17386;43.846;25.950;2022-11-11T05:14:26;102544.72;;;10.47;100.00
20630;BME280;17386;43.846;25.950;2022-11-11T05:17:10;102541.16;;;10.53;100.00
20630;BME280;17386;43.846;25.950;2022-11-11T05:19:54;102536.69;;;10.59;100.00
20630;BME280;17386;43.846;25.950;2022-11-11T05:22:39;102545.47;;;10.67;100.00
20630;BME280;17386;43.846;25.950;2022-11-11T05:25:06;102549.00;;;10.73;100.00
20630;BME280;17386;43.846;25.950;2022-11-11T05:27:54;102554.31;;;10.73;100.00
20630;BME280;17386;43.846;25.950;2022-11-11T05:30:21;102562.38;;;10.60;100.00
20630;BME280;17386;43.846;25.950;2022-11-11T05:32:47;102559.75;;;10.57;100.00
20630;BME280;17386;43.846;25.950;2022-11-11T05:35:13;102557.97;;;10.58;100.00
20630;BME280;17386;43.846;25.950;2022-11-11T05:37:40;102576.44;;;10.78;100.00
20630;BME280;17386;43.846;25.950;2022-11-11T05:40:06;102584.34;;;10.85;100.00
20630;BME280;17386;43.846;25.950;2022-11-11T05:42:32;102585.16;;;10.95;100.00
20630;BME280;17386;43.846;25.950;2022-11-11T05:44:57;102593.09;;;11.00;100.00
20630;BME280;17386;43.846;25.950;2022-11-11T05:47:23;102593.03;;;11.04;100.00
20630;BME280;17386;43.846;25.950;2022-11-11T05:49:48;102591.25;;;11.05;100.00
20630;BME280;17386;43.846;25.950;2022-11-11T05:52:15;102593.91;;;11.09;100.00
20630;BME280;17386;43.846;25.950;2022-11-11T05:54:41;102585.91;;;11.09;100.00
20630;BME280;17386;43.846;25.950;2022-11-11T05:57:07;102588.47;;;11.18;100.00
20630;BME280;17386;43.846;25.950;2022-11-11T05:59:32;102578.81;;;11.13;100.00
20630;BME280;17386;43.846;25.950;2022-11-11T06:01:58;102593.75;;;11.24;100.00
20630;BME280;17386;43.846;25.950;2022-11-11T06:04:23;102600.81;;;11.29;100.00
20630;BME280;17386;43.846;25.950;2022-11-11T06:06:49;102602.59;;;11.30;100.00
20630;BME280;17386;43.846;25.950;2022-11-11T06:09:14;102597.25;;;11.33;100.00
20630;BME280;17386;43.846;25.950;2022-11-11T06:11:40;102600.78;;;11.35;100.00
20630;BME280;17386;43.846;25.950;2022-11-11T06:14:05;102596.34;;;11.32;100.00
20630;BME280;17386;43.846;25.950;2022-11-11T06:16:31;102607.84;;;11.36;100.00
20630;BME280;17386;43.846;25.950;2022-11-11T06:18:56;102611.41;;;11.36;100.00
20630;BME280;17386;43.846;25.950;2022-11-11T06:21:23;102612.34;;;11.31;100.00
20630;BME280;17386;43.846;25.950;2022-11-11T06:23:48;102617.59;;;11.40;100.00
20630;BME280;17386;43.846;25.950;2022-11-11T06:26:14;102622.91;;;11.38;100.00
20630;BME280;17386;43.846;25.950;2022-11-11T06:28:42;102621.16;;;11.36;100.00
20630;BME280;17386;43.846;25.950;2022-11-11T06:31:09;102629.13;;;11.37;100.00
20630;BME280;17386;43.846;25.950;2022-11-11T06:33:36;102628.28;;;11.31;100.00
20630;BME280;17386;43.846;25.950;2022-11-11T06:36:02;102632.69;;;11.36;100.00
20630;BME280;17386;43.846;25.950;2022-11-11T06:38:28;102641.53;;;11.40;100.00
20630;BME280;17386;43.846;25.950;2022-11-11T06:40:54;102629.97;;;11.44;100.00
20630;BME280;17386;43.846;25.950;2022-11-11T06:43:19;102626.38;;;11.48;100.00
20630;BME280;17386;43.846;25.950;2022-11-11T06:45:49;102637.84;;;11.56;100.00
20630;BME280;17386;43.846;25.950;2022-11-11T06:48:14;102638.66;;;11.60;100.00
20630;BME280;17386;43.846;25.950;2022-11-11T06:50:40;102636.97;;;11.52;100.00
20630;BME280;17386;43.846;25.950;2022-11-11T06:53:07;102637.88;;;11.51;100.00
20630;BME280;17386;43.846;25.950;2022-11-11T06:55:33;102632.59;;;11.48;100.00
20630;BME280;17386;43.846;25.950;2022-11-11T06:58:06;102636.13;;;11.49;100.00
20630;BME280;17386;43.846;25.950;2022-11-11T07:00:32;102647.66;;;11.49;100.00
20630;BME280;17386;43.846;25.950;2022-11-11T07:02:58;102640.56;;;11.48;100.00
20630;BME280;17386;43.846;25.950;2022-11-11T07:05:23;102643.22;;;11.48;100.00
20630;BME280;17386;43.846;25.950;2022-11-11T07:07:49;102645.00;;;11.48;100.00
20630;BME280;17386;43.846;25.950;2022-11-11T07:10:14;102660.06;;;11.50;100.00
20630;BME280;17386;43.846;25.950;2022-11-11T07:12:42;102659.19;;;11.50;100.00
20630;BME280;17386;43.846;25.950;2022-11-11T07:15:08;102663.59;;;11.52;100.00
20630;BME280;17386;43.846;25.950;2022-11-11T07:17:33;102670.63;;;11.58;100.00
20630;BME280;17386;43.846;25.950;2022-11-11T07:19:59;102670.63;;;11.60;100.00
20630;BME280;17386;43.846;25.950;2022-11-11T07:22:24;102679.50;;;11.60;100.00
20630;BME280;17386;43.846;25.950;2022-11-11T07:24:49;102672.41;;;11.58;100.00
20630;BME280;17386;43.846;25.950;2022-11-11T07:27:15;102683.97;;;11.57;100.00
20630;BME280;17386;43.846;25.950;2022-11-11T07:29:40;102678.59;;;11.60;100.00
20630;BME280;17386;43.846;25.950;2022-11-11T07:32:06;102683.03;;;11.62;100.00
20630;BME280;17386;43.846;25.950;2022-11-11T07:34:31;102685.75;;;11.56;100.00
20630;BME280;17386;43.846;25.950;2022-11-11T07:36:57;102691.06;;;11.56;100.00
20630;BME280;17386;43.846;25.950;2022-11-11T07:39:22;102695.47;;;11.60;100.00
20630;BME280;17386;43.846;25.950;2022-11-11T07:41:47;102699.03;;;11.58;100.00
20630;BME280;17386;43.846;25.950;2022-11-11T07:44:13;102701.72;;;11.56;100.00
20630;BME280;17386;43.846;25.950;2022-11-11T07:46:38;102703.53;;;11.54;100.00
20630;BME280;17386;43.846;25.950;2022-11-11T07:49:03;102706.19;;;11.54;100.00
20630;BME280;17386;43.846;25.950;2022-11-11T07:51:29;102703.47;;;11.60;100.00
20630;BME280;17386;43.846;25.950;2022-11-11T07:53:54;102705.22;;;11.60;100.00
20630;BME280;17386;43.846;25.950;2022-11-11T07:56:20;102699.97;;;11.54;100.00
20630;BME280;17386;43.846;25.950;2022-11-11T07:58:45;102694.66;;;11.50;100.00
20630;BME280;17386;43.846;25.950;2022-11-11T08:01:10;102702.69;;;11.47;100.00
20630;BME280;17386;43.846;25.950;2022-11-11T08:03:36;102703.56;;;11.48;100.00
20630;BME280;17386;43.846;25.950;2022-11-11T08:06:17;102703.53;;;11.54;100.00
20630;BME280;17386;43.846;25.950;2022-11-11T08:08:43;102713.28;;;11.52;100.00
20630;BME280;17386;43.846;25.950;2022-11-11T08:11:09;102721.28;;;11.50;100.00
20630;BME280;17386;43.846;25.950;2022-11-11T08:13:34;102710.72;;;11.41;100.00
20630;BME280;17386;43.846;25.950;2022-11-11T08:16:14;102711.66;;;11.36;100.00
20630;BME280;17386;43.846;25.950;2022-11-11T08:18:40;102711.69;;;11.33;100.00
20630;BME280;17386;43.846;25.950;2022-11-11T08:21:06;102710.75;;;11.40;100.00
20630;BME280;17386;43.846;25.950;2022-11-11T08:23:32;102701.06;;;11.27;100.00
20630;BME280;17386;43.846;25.950;2022-11-11T08:26:03;102704.59;;;11.29;100.00
20630;BME280;17386;43.846;25.950;2022-11-11T08:28:30;102713.44;;;11.31;100.00
20630;BME280;17386;43.846;25.950;2022-11-11T08:31:00;102718.75;;;11.32;100.00
20630;BME280;17386;43.846;25.950;2022-11-11T08:33:27;102722.31;;;11.33;100.00
20630;BME280;17386;43.846;25.950;2022-11-11T08:35:53;102727.59;;;11.37;100.00
20630;BME280;17386;43.846;25.950;2022-11-11T08:38:22;102727.63;;;11.34;100.00
20630;BME280;17386;43.846;25.950;2022-11-11T08:40:48;102732.06;;;11.35;100.00
20630;BME280;17386;43.846;25.950;2022-11-11T08:43:14;102732.03;;;11.40;100.00
20630;BME280;17386;43.846;25.950;2022-11-11T08:45:39;102739.97;;;11.43;100.00
20630;BME280;17386;43.846;25.950;2022-11-11T08:48:07;102741.72;;;11.48;100.00
20630;BME280;17386;43.846;25.950;2022-11-11T08:50:38;102733.78;;;11.42;100.00
20630;BME280;17386;43.846;25.950;2022-11-11T08:53:08;102729.38;;;11.40;100.00
20630;BME280;17386;43.846;25.950;2022-11-11T08:55:34;102746.16;;;11.48;100.00
20630;BME280;17386;43.846;25.950;2022-11-11T08:58:03;102752.34;;;11.53;100.00
20630;BME280;17386;43.846;25.950;2022-11-11T09:00:29;102747.03;;;11.48;100.00
20630;BME280;17386;43.846;25.950;2022-11-11T09:03:00;102751.44;;;11.51;100.00
20630;BME280;17386;43.846;25.950;2022-11-11T09:05:26;102755.91;;;11.46;100.00
20630;BME280;17386;43.846;25.950;2022-11-11T09:07:51;102757.69;;;11.48;100.00
20630;BME280;17386;43.846;25.950;2022-11-11T09:10:17;102771.00;;;11.44;100.00
20630;BME280;17386;43.846;25.950;2022-11-11T09:12:42;102765.75;;;11.36;100.00
20630;BME280;17386;43.846;25.950;2022-11-11T09:15:08;102762.19;;;11.36;100.00
20630;BME280;17386;43.846;25.950;2022-11-11T09:17:33;102762.16;;;11.42;100.00
20630;BME280;17386;43.846;25.950;2022-11-11T09:19:59;102758.53;;;11.50;100.00
20630;BME280;17386;43.846;25.950;2022-11-11T09:22:24;102765.66;;;11.53;100.00
20630;BME280;17386;43.846;25.950;2022-11-11T09:24:50;102769.22;;;11.49;100.00
20630;BME280;17386;43.846;25.950;2022-11-11T09:27:15;102762.16;;;11.46;100.00
20630;BME280;17386;43.846;25.950;2022-11-11T09:29:41;102768.25;;;11.58;100.00
20630;BME280;17386;43.846;25.950;2022-11-11T09:32:06;102769.97;;;11.65;100.00
20630;BME280;17386;43.846;25.950;2022-11-11T09:34:32;102764.59;;;11.71;100.00
20630;BME280;17386;43.846;25.950;2022-11-11T09:36:57;102759.34;;;11.63;100.00
20630;BME280;17386;43.846;25.950;2022-11-11T09:39:23;102767.28;;;11.69;100.00
20630;BME280;17386;43.846;25.950;2022-11-11T09:42:01;102768.25;;;11.58;100.00
20630;BME280;17386;43.846;25.950;2022-11-11T09:50:00;102757.53;;;11.65;100.00
20630;BME280;17386;43.846;25.950;2022-11-11T09:52:41;102747.81;;;11.63;100.00
20630;BME280;17386;43.846;25.950;2022-11-11T09:57:48;102760.22;;;11.65;100.00
20630;BME280;17386;43.846;25.950;2022-11-11T10:00:22;102737.19;;;11.61;100.00
20630;BME280;17386;43.846;25.950;2022-11-11T10:02:56;102761.88;;;11.78;100.00
20630;BME280;17386;43.846;25.950;2022-11-11T10:05:28;102766.28;;;11.87;100.00
20630;BME280;17386;43.846;25.950;2022-11-11T10:10:51;102763.53;;;11.96;100.00
20630;BME280;17386;43.846;25.950;2022-11-11T10:13:26;102767.88;;;12.05;100.00
20630;BME280;17386;43.846;25.950;2022-11-11T10:21:14;102767.03;;;12.00;100.00
20630;BME280;17386;43.846;25.950;2022-11-11T10:23:42;102767.06;;;11.98;100.00
20630;BME280;17386;43.846;25.950;2022-11-11T10:28:42;102766.22;;;11.93;100.00
20630;BME280;17386;43.846;25.950;2022-11-11T10:31:15;102770.66;;;11.93;100.00
20630;BME280;17386;43.846;25.950;2022-11-11T10:36:16;102773.34;;;11.94;100.00
20630;BME280;17386;43.846;25.950;2022-11-11T10:38:49;102771.63;;;11.87;100.00
20630;BME280;17386;43.846;25.950;2022-11-11T10:41:24;102767.19;;;11.88;100.00
20630;BME280;17386;43.846;25.950;2022-11-11T10:43:50;102772.50;;;11.88;100.00
20630;BME280;17386;43.846;25.950;2022-11-11T10:46:23;102768.06;;;11.88;100.00
20630;BME280;17386;43.846;25.950;2022-11-11T10:49:02;102767.19;;;11.88;100.00
20630;BME280;17386;43.846;25.950;2022-11-11T10:51:35;102769.81;;;11.89;100.00
20630;BME280;17386;43.846;25.950;2022-11-11T10:54:12;102775.09;;;11.94;100.00
20630;BME280;17386;43.846;25.950;2022-11-11T10:56:44;102783.91;;;11.99;100.00
20630;BME280;17386;43.846;25.950;2022-11-11T10:59:25;102774.16;;;12.01;100.00
20630;BME280;17386;43.846;25.950;2022-11-11T11:02:21;102778.56;;;12.00;100.00
20630;BME280;17386;43.846;25.950;2022-11-11T11:04:52;102775.94;;;11.97;100.00
20630;BME280;17386;43.846;25.950;2022-11-11T11:07:42;102775.16;;;11.88;100.00
20630;BME280;17386;43.846;25.950;2022-11-11T11:10:27;102779.56;;;11.90;100.00
20630;BME280;17386;43.846;25.950;2022-11-11T11:13:03;102775.09;;;11.92;100.00
20630;BME280;17386;43.846;25.950;2022-11-11T11:15:30;102774.22;;;11.95;100.00
20630;BME280;17386;43.846;25.950;2022-11-11T11:18:14;102775.13;;;11.91;100.00
20630;BME280;17386;43.846;25.950;2022-11-11T11:20:58;102777.72;;;12.01;100.00
20630;BME280;17386;43.846;25.950;2022-11-11T11:23:42;102770.59;;;11.99;100.00
20630;BME280;17386;43.846;25.950;2022-11-11T11:26:09;102774.16;;;12.01;100.00
20630;BME280;17386;43.846;25.950;2022-11-11T11:28:52;102769.75;;;11.94;100.00
20630;BME280;17386;43.846;25.950;2022-11-11T11:31:33;102763.69;;;11.81;100.00
20630;BME280;17386;43.846;25.950;2022-11-11T11:33:59;102771.69;;;11.75;100.00
20630;BME280;17386;43.846;25.950;2022-11-11T11:36:25;102775.16;;;11.80;100.00
20630;BME280;17386;43.846;25.950;2022-11-11T11:38:50;102765.47;;;11.71;100.00
20630;BME280;17386;43.846;25.950;2022-11-11T11:41:17;102764.69;;;11.62;100.00
20630;BME280;17386;43.846;25.950;2022-11-11T11:43:43;102753.16;;;11.61;100.00
20630;BME280;17386;43.846;25.950;2022-11-11T11:46:37;102764.66;;;11.68;100.00
20630;BME280;17386;43.846;25.950;2022-11-11T11:54:55;102766.38;;;11.72;100.00
20630;BME280;17386;43.846;25.950;2022-11-11T11:57:54;102772.59;;;11.74;100.00
20630;BME280;17386;43.846;25.950;2022-11-11T12:00:30;102772.63;;;11.68;100.00
20630;BME280;17386;43.846;25.950;2022-11-11T12:05:49;102772.63;;;11.66;100.00
20630;BME280;17386;43.846;25.950;2022-11-11T12:16:51;102767.34;;;11.59;100.00
20630;BME280;17386;43.846;25.950;2022-11-11T12:19:36;102769.09;;;11.64;100.00
20630;BME280;17386;43.846;25.950;2022-11-11T12:30:18;102763.72;;;11.73;100.00
20630;BME280;17386;43.846;25.950;2022-11-11T12:43:30;102760.91;;;11.95;100.00
20630;BME280;17386;43.846;25.950;2022-11-11T12:46:10;102768.94;;;11.89;100.00
20630;BME280;17386;43.846;25.950;2022-11-11T13:10:51;102765.38;;;11.90;100.00
20630;BME280;17386;43.846;25.950;2022-11-11T13:16:20;102765.44;;;11.77;100.00
20630;BME280;17386;43.846;25.950;2022-11-11T13:22:07;102773.44;;;11.81;100.00
20630;BME280;17386;43.846;25.950;2022-11-11T13:24:42;102777.81;;;11.88;100.00
20630;BME280;17386;43.846;25.950;2022-11-11T13:27:41;102776.03;;;11.90;100.00
20630;BME280;17386;43.846;25.950;2022-11-11T13:33:05;102784.88;;;11.95;100.00
20630;BME280;17386;43.846;25.950;2022-11-11T13:35:50;102787.50;;;11.96;100.00
20630;BME280;17386;43.846;25.950;2022-11-11T13:38:31;102791.91;;;11.99;100.00
20630;BME280;17386;43.846;25.950;2022-11-11T13:41:06;102804.34;;;12.00;100.00
20630;BME280;17386;43.846;25.950;2022-11-11T13:43:42;102789.31;;;11.91;100.00
20630;BME280;17386;43.846;25.950;2022-11-11T13:48:53;102801.63;;;12.04;100.00
20630;BME280;17386;43.846;25.950;2022-11-11T13:51:25;102789.31;;;11.93;100.00
20630;BME280;17386;43.846;25.950;2022-11-11T13:53:56;102799.81;;;12.10;100.00
20630;BME280;17386;43.846;25.950;2022-11-11T13:56:30;102800.72;;;12.09;100.00
20630;BME280;17386;43.846;25.950;2022-11-11T13:58:58;102798.94;;;12.09;100.00
20630;BME280;17386;43.846;25.950;2022-11-11T14:01:31;102788.34;;;12.01;100.00
20630;BME280;17386;43.846;25.950;2022-11-11T14:04:08;102790.16;;;12.01;100.00
20630;BME280;17386;43.846;25.950;2022-11-11T14:09:00;102784.00;;;11.91;100.00
20630;BME280;17386;43.846;25.950;2022-11-11T14:13:53;102786.72;;;11.84;100.00
20630;BME280;17386;43.846;25.950;2022-11-11T14:21:53;102804.34;;;12.01;100.00
20630;BME280;17386;43.846;25.950;2022-11-11T14:24:43;102793.66;;;12.03;100.00
20630;BME280;17386;43.846;25.950;2022-11-11T14:29:38;102793.69;;;12.01;100.00
20630;BME280;17386;43.846;25.950;2022-11-11T14:34:53;102789.22;;;12.00;100.00
20630;BME280;17386;43.846;25.950;2022-11-11T14:39:56;102784.78;;;12.04;100.00
20630;BME280;17386;43.846;25.950;2022-11-11T14:45:04;102790.06;;;12.07;100.00